Time;durP1;ratioP1;P1;durP2;ratioP2;P2;SDS_P1;SDS_P2;PMS_P1;PMS_P2;Temp;Humidity;BMP_temperature;BMP_pressure;BME280_temperature;BME280_humidity;BME280_pressure;Samples;Min_cycle;Max_cycle;Signal;HPM_P1;HPM_P2
2023/03/26 00:02:14;;;;;;;4.10;1.63;;;11.30;15.40;;;;;;5102511;28;20803;-82
2023/03/26 00:04:45;;;;;;;3.97;1.52;;;11.20;1.00;;;;;;5100107;28;20890;-83
2023/03/26 00:07:18;;;;;;;3.20;1.23;;;11.00;1.00;;;;;;5099860;28;20389;-84
2023/03/26 00:09:50;;;;;;;3.67;1.40;;;11.20;99.90;;;;;;5104075;28;20388;-84
2023/03/26 00:12:31;;;;;;;4.28;1.40;;;12.00;45.50;;;;;;5123492;27;20894;-84
2023/03/26 00:14:59;;;;;;;4.97;1.20;;;11.30;1.00;;;;;;5122237;27;20399;-84
2023/03/26 00:17:35;;;;;;;3.60;1.30;;;11.10;1.00;;;;;;5126083;27;20379;-84
2023/03/26 00:20:18;;;;;;;4.00;1.30;;;12.80;1.00;;;;;;5125683;27;20390;-83
2023/03/26 00:22:44;;;;;;;2.58;1.35;;;11.00;1.00;;;;;;5125509;27;20383;-84
2023/03/26 00:25:15;;;;;;;7.00;1.80;;;12.00;99.90;;;;;;5124266;27;20939;-84
2023/03/26 00:27:48;;;;;;;5.68;1.15;;;11.10;99.90;;;;;;5125256;27;20383;-84
2023/03/26 00:30:19;;;;;;;6.32;1.73;;;11.00;99.90;;;;;;5124033;27;20426;-83
2023/03/26 00:32:48;;;;;;;1.70;1.10;;;11.00;1.00;;;;;;5122585;27;20394;-83
2023/03/26 00:35:19;;;;;;;3.15;1.55;;;11.00;1.00;;;;;;5143117;27;20406;-83
2023/03/26 00:37:53;;;;;;;4.22;1.20;;;11.10;99.90;;;;;;5143834;27;20379;-84
2023/03/26 00:40:22;;;;;;;6.72;2.05;;;11.00;1.00;;;;;;5123541;27;20889;-84
2023/03/26 00:43:18;;;;;;;3.60;1.15;;;11.90;99.90;;;;;;5124025;27;20876;-84
2023/03/26 00:45:53;;;;;;;4.68;1.63;;;11.10;1.00;;;;;;5123497;27;20390;-84
2023/03/26 00:48:25;;;;;;;3.60;1.20;;;11.00;1.00;;;;;;5123601;27;20391;-83
2023/03/26 00:50:53;;;;;;;4.53;1.40;;;11.00;1.00;;;;;;5122678;27;20383;-83
2023/03/26 00:53:27;;;;;;;5.83;1.50;;;11.80;1.00;;;;;;5124449;27;20439;-83
2023/03/26 00:56:09;;;;;;;3.17;1.80;;;11.20;99.90;;;;;;5142359;27;20371;-84
2023/03/26 00:58:35;;;;;;;3.10;1.23;;;11.10;99.90;;;;;;5121633;27;20483;-84
2023/03/26 01:01:08;;;;;;;3.23;1.00;;;11.40;99.90;;;;;;5123237;27;20394;-84
2023/03/26 01:03:37;;;;;;;5.20;1.50;;;11.00;1.00;;;;;;5141674;27;20794;-84
2023/03/26 01:06:11;;;;;;;4.90;1.15;;;11.60;99.90;;;;;;5121646;27;20872;-84
2023/03/26 01:08:49;;;;;;;4.15;1.48;;;11.10;82.40;;;;;;5143845;27;20374;-84
2023/03/26 01:11:24;;;;;;;4.00;1.70;;;11.10;45.00;;;;;;5120948;28;20418;-84
2023/03/26 01:13:54;;;;;;;8.77;2.00;;;11.10;9.80;;;;;;5105356;28;20465;-85
2023/03/26 01:16:32;;;;;;;4.35;1.50;;;11.70;1.00;;;;;;5121894;28;20483;-84
2023/03/26 01:18:59;;;;;;;6.50;1.60;;;11.00;1.00;;;;;;5103192;28;20396;-84
2023/03/26 01:21:29;;;;;;;4.82;1.55;;;11.10;1.00;;;;;;5103786;28;20380;-84
2023/03/26 01:24:15;;;;;;;7.90;2.00;;;11.10;1.00;;;;;;5104553;28;20384;-84
2023/03/26 01:26:47;;;;;;;3.33;1.48;;;11.10;1.00;;;;;;5103298;28;20384;-84
2023/03/26 01:29:43;;;;;;;7.68;1.30;;;11.10;1.00;;;;;;5105624;28;20384;-84
2023/03/26 01:32:21;;;;;;;4.28;1.50;;;11.10;1.00;;;;;;5105643;22;20425;-85
2023/03/26 01:34:52;;;;;;;4.68;1.38;;;11.00;1.00;;;;;;5028137;28;20425;-86
2023/03/26 01:37:21;;;;;;;4.45;1.38;;;10.90;1.00;;;;;;5012261;28;20432;-85
2023/03/26 01:39:56;;;;;;;5.80;1.50;;;10.90;1.00;;;;;;5027548;28;20389;-85
2023/03/26 01:42:44;;;;;;;4.60;1.50;;;10.80;99.90;;;;;;5012633;28;20393;-86
2023/03/26 01:45:15;;;;;;;5.20;1.35;;;10.90;49.20;;;;;;5012539;28;20385;-86
2023/03/26 01:47:42;;;;;;;7.07;1.90;;;10.90;1.00;;;;;;5011202;28;20389;-85
2023/03/26 01:50:08;;;;;;;6.57;1.42;;;10.90;1.00;;;;;;5011615;28;20412;-86
2023/03/26 01:52:34;;;;;;;2.40;1.30;;;10.80;22.80;;;;;;5010822;28;20407;-85
2023/03/26 01:54:59;;;;;;;5.93;1.40;;;10.80;1.00;;;;;;5010981;28;20396;-85
2023/03/26 01:57:55;;;;;;;4.05;1.63;;;10.80;20.90;;;;;;5010808;28;20392;-86
2023/03/26 02:00:30;;;;;;;4.53;1.55;;;10.70;59.00;;;;;;5012612;28;20377;-85
2023/03/26 02:03:02;;;;;;;5.43;1.80;;;10.80;1.00;;;;;;5010770;28;20384;-85
2023/03/26 02:05:53;;;;;;;4.82;1.60;;;10.90;99.90;;;;;;5012032;28;20396;-86
2023/03/26 02:08:41;;;;;;;4.68;1.83;;;11.00;99.90;;;;;;5010585;28;20417;-85
2023/03/26 02:11:11;;;;;;;4.90;1.55;;;11.00;99.90;;;;;;5011009;28;20791;-85
2023/03/26 02:13:38;;;;;;;6.25;1.73;;;11.10;99.90;;;;;;5010810;28;20444;-85
2023/03/26 02:16:07;;;;;;;5.20;1.40;;;11.10;99.90;;;;;;5010482;28;20385;-86
2023/03/26 02:18:37;;;;;;;5.10;1.25;;;11.10;99.90;;;;;;5010871;28;20879;-85
2023/03/26 02:21:09;;;;;;;4.60;1.67;;;11.10;99.90;;;;;;5010981;28;20395;-86
2023/03/26 02:23:35;;;;;;;4.23;1.70;;;11.10;99.90;;;;;;5010478;28;20424;-85
2023/03/26 02:26:05;;;;;;;6.75;1.50;;;11.10;99.90;;;;;;5010630;28;20887;-85
2023/03/26 02:28:31;;;;;;;5.40;1.60;;;11.10;99.90;;;;;;5011210;28;20891;-86
2023/03/26 02:31:00;;;;;;;6.47;2.50;;;11.20;99.90;;;;;;5012353;28;20485;-85
2023/03/26 02:33:29;;;;;;;8.13;2.10;;;11.10;99.90;;;;;;5011674;28;20409;-85
2023/03/26 02:35:58;;;;;;;5.75;1.63;;;11.00;1.00;;;;;;5010057;28;20439;-85
2023/03/26 02:38:27;;;;;;;6.82;1.80;;;11.00;1.00;;;;;;5011062;28;20472;-85
2023/03/26 02:40:54;;;;;;;5.22;1.60;;;11.00;1.00;;;;;;5010729;28;20456;-85
2023/03/26 02:43:21;;;;;;;4.25;1.70;;;11.10;1.00;;;;;;5011288;28;20822;-85
2023/03/26 02:45:46;;;;;;;5.68;1.70;;;11.10;99.90;;;;;;5033259;28;20476;-87
2023/03/26 02:48:13;;;;;;;4.37;1.50;;;11.10;99.90;;;;;;5027090;28;20415;-86
2023/03/26 02:50:39;;;;;;;6.03;1.88;;;11.20;99.90;;;;;;5012659;28;20810;-86
2023/03/26 02:53:05;;;;;;;7.85;1.58;;;11.20;99.90;;;;;;5010617;28;20385;-85
2023/03/26 02:55:31;;;;;;;5.15;1.95;;;11.10;99.90;;;;;;5010698;28;21018;-85
2023/03/26 02:57:56;;;;;;;3.88;1.60;;;11.10;1.00;;;;;;5016310;28;20400;-87
2023/03/26 03:00:22;;;;;;;6.20;1.45;;;11.20;99.90;;;;;;5026363;28;20412;-86
2023/03/26 03:02:48;;;;;;;5.80;1.45;;;11.10;99.90;;;;;;5011309;28;20392;-85
2023/03/26 03:05:14;;;;;;;6.68;1.58;;;11.10;1.00;;;;;;5009912;28;20403;-86
2023/03/26 03:07:40;;;;;;;5.20;1.40;;;11.00;1.00;;;;;;5009678;28;20473;-85
2023/03/26 03:10:07;;;;;;;3.53;1.70;;;11.00;1.00;;;;;;5006808;28;20490;-86
2023/03/26 03:12:33;;;;;;;4.53;1.60;;;11.00;1.00;;;;;;4990244;28;20453;-85
2023/03/26 03:14:59;;;;;;;5.15;1.70;;;10.80;99.90;;;;;;4990081;28;20816;-85
2023/03/26 03:17:25;;;;;;;4.50;1.55;;;11.00;1.00;;;;;;4992258;28;20391;-86
2023/03/26 03:19:51;;;;;;;4.27;1.90;;;10.90;1.00;;;;;;5006271;28;20383;-86
2023/03/26 03:22:16;;;;;;;4.93;1.90;;;10.70;99.90;;;;;;4999835;28;20418;-85
2023/03/26 03:24:42;;;;;;;6.60;2.40;;;10.70;1.00;;;;;;4997755;28;20783;-85
2023/03/26 03:27:08;;;;;;;6.90;1.50;;;10.60;1.00;;;;;;4993724;28;20403;-85
2023/03/26 03:29:34;;;;;;;6.10;1.53;;;10.50;1.00;;;;;;4995348;28;20881;-86
2023/03/26 03:32:00;;;;;;;6.17;1.43;;;10.50;1.00;;;;;;4993843;28;20757;-84
2023/03/26 03:34:25;;;;;;;4.57;1.47;;;10.50;99.90;;;;;;4993666;28;20402;-86
2023/03/26 03:36:51;;;;;;;6.10;1.60;;;10.40;99.90;;;;;;4994664;28;20426;-86
2023/03/26 03:39:17;;;;;;;5.47;2.00;;;10.30;1.00;;;;;;4993741;28;20402;-86
2023/03/26 03:41:42;;;;;;;4.75;1.50;;;10.20;99.90;;;;;;4993934;28;20447;-85
2023/03/26 03:44:08;;;;;;;5.75;1.50;;;10.10;1.00;;;;;;4993776;28;20403;-85
2023/03/26 03:46:33;;;;;;;4.90;1.40;;;10.10;99.90;;;;;;4994277;28;20409;-85
2023/03/26 03:48:59;;;;;;;5.43;2.03;;;10.00;1.00;;;;;;4993934;28;20402;-85
2023/03/26 03:51:24;;;;;;;6.27;1.70;;;10.00;1.00;;;;;;4993639;28;20430;-86
2023/03/26 03:53:51;;;;;;;4.00;1.40;;;9.80;1.00;;;;;;4994796;28;20836;-85
2023/03/26 03:56:18;;;;;;;4.90;1.50;;;9.80;99.90;;;;;;4993390;28;20418;-85
2023/03/26 03:58:45;;;;;;;6.90;2.10;;;9.90;99.90;;;;;;4994881;28;20790;-85
2023/03/26 04:01:12;;;;;;;5.82;1.70;;;9.90;99.90;;;;;;4993393;28;20526;-84
2023/03/26 04:03:38;;;;;;;5.10;1.23;;;9.90;1.00;;;;;;4994554;28;20393;-85
2023/03/26 04:06:09;;;;;;;4.35;1.70;;;9.90;99.90;;;;;;4994409;28;20892;-84
2023/03/26 04:08:35;;;;;;;5.30;1.50;;;9.90;1.00;;;;;;4994439;28;20386;-85
2023/03/26 04:11:01;;;;;;;4.97;1.87;;;9.80;1.00;;;;;;5003998;28;20397;-85
2023/03/26 04:13:27;;;;;;;4.90;1.97;;;9.80;1.00;;;;;;5014636;28;20421;-85
2023/03/26 04:15:52;;;;;;;6.07;2.10;;;9.80;1.00;;;;;;5013742;28;20887;-86
2023/03/26 04:18:19;;;;;;;4.93;1.90;;;9.60;1.00;;;;;;5014577;28;20388;-86
2023/03/26 04:20:45;;;;;;;6.00;1.50;;;9.70;1.00;;;;;;5037698;28;20741;-85
2023/03/26 04:23:17;;;;;;;2.00;1.50;;;9.70;1.00;;;;;;5038735;28;20404;-86
2023/03/26 04:25:47;;;;;;;4.57;1.60;;;9.60;1.00;;;;;;5035683;28;20400;-86
2023/03/26 04:28:25;;;;;;;4.80;1.60;;;9.60;1.00;;;;;;5019585;28;20413;-85
2023/03/26 04:30:53;;;;;;;5.13;1.77;;;9.60;1.00;;;;;;5013279;28;20471;-86
2023/03/26 04:33:19;;;;;;;2.63;1.20;;;9.60;1.00;;;;;;5013230;28;20447;-85
2023/03/26 04:35:47;;;;;;;2.33;1.60;;;9.60;1.00;;;;;;5013551;28;20389;-85
2023/03/26 04:38:15;;;;;;;6.53;1.70;;;9.60;1.00;;;;;;5012791;28;20393;-85
2023/03/26 04:40:42;;;;;;;6.20;2.10;;;9.60;1.00;;;;;;5012134;28;20512;-85
2023/03/26 04:43:12;;;;;;;5.68;2.05;;;9.60;1.00;;;;;;5029457;28;20399;-85
2023/03/26 04:45:38;;;;;;;4.40;1.30;;;9.70;1.00;;;;;;5017398;28;20929;-85
2023/03/26 04:48:06;;;;;;;3.22;0.98;;;9.80;1.00;;;;;;5012785;28;20389;-85
2023/03/26 04:50:31;;;;;;;1.95;1.20;;;10.40;1.00;;;;;;5013835;28;20399;-85
2023/03/26 04:52:57;;;;;;;4.68;1.35;;;10.50;99.90;;;;;;5012733;28;20393;-85
2023/03/26 04:55:28;;;;;;;2.50;0.90;;;10.40;99.90;;;;;;5013851;28;20419;-86
2023/03/26 04:57:56;;;;;;;4.10;1.10;;;10.80;99.90;;;;;;5011576;28;20393;-85
2023/03/26 05:00:22;;;;;;;3.00;0.90;;;11.00;1.00;;;;;;5013335;28;20471;-86
2023/03/26 05:02:49;;;;;;;2.80;0.70;;;10.90;1.00;;;;;;5012280;28;20377;-86
2023/03/26 05:05:16;;;;;;;2.20;0.80;;;11.10;99.90;;;;;;5012758;28;20393;-86
2023/03/26 05:07:42;;;;;;;2.53;0.90;;;11.10;1.00;;;;;;5011568;28;20447;-86
2023/03/26 05:10:11;;;;;;;2.03;1.10;;;11.10;1.00;;;;;;5008524;28;20390;-85
2023/03/26 05:12:36;;;;;;;2.38;0.90;;;11.20;1.00;;;;;;4991630;28;21146;-86
2023/03/26 05:15:02;;;;;;;3.30;1.13;;;11.20;1.00;;;;;;4993037;28;20411;-85
2023/03/26 05:17:29;;;;;;;2.70;0.90;;;11.10;99.90;;;;;;4991728;28;20458;-86
2023/03/26 05:19:55;;;;;;;1.30;0.90;;;11.10;99.90;;;;;;4992306;28;20473;-86
2023/03/26 05:22:21;;;;;;;1.30;1.00;;;11.20;1.00;;;;;;4991425;28;20422;-85
2023/03/26 05:24:46;;;;;;;2.40;1.20;;;11.20;1.00;;;;;;4993516;28;20453;-85
2023/03/26 05:27:15;;;;;;;2.33;1.30;;;11.10;60.90;;;;;;4992126;28;20452;-86
2023/03/26 05:29:41;;;;;;;2.25;1.02;;;11.00;99.90;;;;;;5021620;28;20401;-86
2023/03/26 05:32:08;;;;;;;2.78;1.08;;;10.80;99.90;;;;;;5035546;28;20403;-87
2023/03/26 05:34:34;;;;;;;2.10;1.10;;;10.70;1.00;;;;;;5009195;28;20433;-86
2023/03/26 05:36:59;;;;;;;2.08;1.02;;;10.50;12.80;;;;;;5008183;28;20391;-85
2023/03/26 05:39:26;;;;;;;2.75;1.00;;;10.50;1.00;;;;;;5005165;28;20388;-85
2023/03/26 05:41:52;;;;;;;2.90;1.10;;;10.60;1.00;;;;;;5021036;28;20474;-86
2023/03/26 05:44:18;;;;;;;1.00;0.70;;;10.60;1.00;;;;;;5041975;28;20395;-87
2023/03/26 05:46:43;;;;;;;2.65;1.15;;;10.60;1.00;;;;;;5037661;28;20392;-83
2023/03/26 05:49:09;;;;;;;1.90;1.00;;;10.70;1.00;;;;;;5048335;28;20391;-86
2023/03/26 05:51:34;;;;;;;2.93;1.40;;;10.60;1.00;;;;;;5048197;28;20470;-86
2023/03/26 05:54:00;;;;;;;3.07;1.10;;;10.50;1.00;;;;;;5045416;28;20415;-87
2023/03/26 05:56:26;;;;;;;1.95;1.00;;;10.30;78.40;;;;;;5042678;28;20422;-86
2023/03/26 05:58:51;;;;;;;2.58;1.10;;;10.30;99.90;;;;;;5015225;28;20392;-86
2023/03/26 06:01:17;;;;;;;1.98;1.10;;;10.20;99.90;;;;;;5027287;28;20407;-86
2023/03/26 06:03:44;;;;;;;2.50;1.40;;;10.10;99.90;;;;;;5022182;28;20384;-85
2023/03/26 06:06:15;;;;;;;4.63;1.20;;;10.00;99.90;;;;;;5020932;28;20391;-86
2023/03/26 06:08:47;;;;;;;3.67;1.30;;;10.00;99.90;;;;;;5033867;28;20484;-86
2023/03/26 06:11:14;;;;;;;2.20;1.10;;;10.00;99.90;;;;;;5019333;28;20396;-86
2023/03/26 06:13:40;;;;;;;2.58;1.50;;;9.90;99.90;;;;;;5024981;28;20400;-86
2023/03/26 06:16:06;;;;;;;3.97;1.30;;;9.90;99.90;;;;;;5011717;28;20385;-86
2023/03/26 06:18:32;;;;;;;2.35;1.25;;;9.80;99.90;;;;;;5010875;28;20898;-86
2023/03/26 06:20:58;;;;;;;2.20;1.30;;;9.80;99.90;;;;;;5010662;28;20392;-86
2023/03/26 06:23:23;;;;;;;2.33;1.40;;;9.80;99.90;;;;;;5010963;28;20428;-86
2023/03/26 06:25:49;;;;;;;2.40;1.20;;;9.70;99.90;;;;;;5019555;28;20408;-87
2023/03/26 06:28:15;;;;;;;2.70;1.10;;;9.70;99.90;;;;;;5024524;28;20400;-85
2023/03/26 06:30:40;;;;;;;3.47;1.30;;;9.70;99.90;;;;;;5028416;28;20389;-87
2023/03/26 06:33:06;;;;;;;3.00;1.10;;;9.70;99.90;;;;;;5034502;28;20404;-86
2023/03/26 06:35:32;;;;;;;3.00;1.20;;;9.80;99.90;;;;;;5037037;28;20423;-90
2023/03/26 06:37:58;;;;;;;1.40;0.80;;;9.80;99.90;;;;;;5037287;28;20384;-87
2023/03/26 06:40:24;;;;;;;1.60;0.90;;;9.90;99.90;;;;;;5035401;28;20417;-84
2023/03/26 06:42:50;;;;;;;3.70;1.00;;;9.90;99.90;;;;;;5050339;28;20402;-88
2023/03/26 06:45:15;;;;;;;2.13;1.20;;;9.90;99.90;;;;;;5037956;28;20395;-87
2023/03/26 06:47:41;;;;;;;2.95;1.60;;;9.90;99.90;;;;;;5026188;28;20907;-88
2023/03/26 06:50:07;;;;;;;3.43;1.20;;;9.90;99.90;;;;;;5026423;28;20400;-88
2023/03/26 06:52:33;;;;;;;2.42;1.00;;;9.90;99.90;;;;;;5016634;28;20936;-88
2023/03/26 06:54:59;;;;;;;2.80;1.10;;;10.10;99.90;;;;;;5032490;28;20411;-88
2023/03/26 06:57:24;;;;;;;3.30;0.90;;;10.50;41.50;;;;;;5039141;28;20391;-88
2023/03/26 06:59:50;;;;;;;1.45;0.90;;;10.50;27.90;;;;;;5029441;28;20377;-88
2023/03/26 07:02:15;;;;;;;2.03;1.20;;;10.60;73.20;;;;;;5028517;28;20401;-89
2023/03/26 07:04:41;;;;;;;1.30;0.80;;;11.00;1.00;;;;;;5022129;28;20439;-88
2023/03/26 07:07:07;;;;;;;2.30;0.90;;;11.00;1.00;;;;;;5036494;28;20462;-87
2023/03/26 07:09:32;;;;;;;2.30;0.90;;;11.00;1.00;;;;;;5029214;28;20399;-89
2023/03/26 07:11:58;;;;;;;2.53;1.03;;;11.60;1.00;;;;;;5031039;28;20399;-89
2023/03/26 07:14:24;;;;;;;1.40;1.00;;;11.00;1.00;;;;;;5040159;28;20407;-88
2023/03/26 07:16:53;;;;;;;1.30;0.80;;;11.00;1.00;;;;;;5057235;28;20992;-88
2023/03/26 07:19:18;;;;;;;2.42;1.00;;;10.90;24.00;;;;;;5021874;28;20407;-87
2023/03/26 07:21:45;;;;;;;1.20;0.98;;;10.90;58.30;;;;;;5036544;28;20472;-88
2023/03/26 07:24:12;;;;;;;1.90;0.85;;;10.90;20.70;;;;;;5023688;28;20384;-88
2023/03/26 07:26:47;;;;;;;1.48;0.88;;;10.70;99.90;;;;;;5027744;28;20391;-86
2023/03/26 07:29:19;;;;;;;2.90;1.00;;;10.80;99.90;;;;;;5011144;28;20449;-86
2023/03/26 07:31:59;;;;;;;1.10;1.00;;;11.00;1.00;;;;;;5025201;28;20410;-87
2023/03/26 07:34:41;;;;;;;2.60;0.77;;;11.20;1.00;;;;;;5007148;28;20406;-86
2023/03/26 07:37:18;;;;;;;2.10;1.00;;;11.40;1.00;;;;;;5011793;28;20390;-86
2023/03/26 07:40:42;;;;;;;2.33;0.93;;;11.50;1.00;;;;;;5038403;28;20387;-85
2023/03/26 07:43:42;;;;;;;1.60;0.80;;;11.80;99.90;;;;;;4991477;28;20814;-86
2023/03/26 07:46:11;;;;;;;1.50;0.90;;;11.70;99.90;;;;;;5011775;28;20397;-86
2023/03/26 07:48:40;;;;;;;2.75;0.90;;;11.90;1.00;;;;;;5025260;28;20383;-85
2023/03/26 07:51:06;;;;;;;1.83;0.93;;;11.80;1.00;;;;;;5018105;28;20447;-86
2023/03/26 07:53:32;;;;;;;3.60;1.00;;;11.60;1.00;;;;;;5015848;28;20392;-88
2023/03/26 07:56:07;;;;;;;2.00;0.90;;;10.30;99.90;;;;;;5014488;28;20895;-85
2023/03/26 07:59:00;;;;;;;2.35;1.10;;;9.60;99.90;;;;;;5016884;28;20393;-85
2023/03/26 08:01:56;;;;;;;1.42;1.20;;;9.30;99.90;;;;;;5015672;28;20385;-87
2023/03/26 08:04:31;;;;;;;3.47;1.10;;;9.30;99.90;;;;;;5016993;28;20385;-85
2023/03/26 08:07:03;;;;;;;2.30;1.20;;;9.20;99.90;;;;;;5015085;28;20385;-87
2023/03/26 08:09:40;;;;;;;3.70;1.27;;;9.20;99.90;;;;;;5033442;28;20379;-86
2023/03/26 08:12:24;;;;;;;1.50;1.33;;;9.10;99.90;;;;;;5022612;28;20808;-85
2023/03/26 08:15:13;;;;;;;3.70;1.20;;;9.10;99.90;;;;;;5018751;28;20416;-85
2023/03/26 08:18:16;;;;;;;2.53;1.10;;;9.00;99.90;;;;;;5016516;28;20952;-88
2023/03/26 08:20:48;;;;;;;3.05;1.00;;;9.20;99.90;;;;;;5018859;28;20388;-87
2023/03/26 08:23:33;;;;;;;1.23;0.80;;;9.20;99.90;;;;;;5015728;28;20439;-85
2023/03/26 08:26:16;;;;;;;1.60;0.90;;;9.30;99.90;;;;;;5032776;28;20396;-87
2023/03/26 08:28:41;;;;;;;2.00;0.90;;;9.30;99.90;;;;;;5027885;28;20400;-88
2023/03/26 08:31:10;;;;;;;1.93;0.90;;;9.50;99.90;;;;;;5035205;28;20460;-86
2023/03/26 08:33:35;;;;;;;1.75;1.00;;;9.50;99.90;;;;;;5016861;28;20455;-84
2023/03/26 08:36:01;;;;;;;3.20;1.20;;;9.60;99.90;;;;;;5012547;28;20400;-87
2023/03/26 08:38:26;;;;;;;1.70;1.10;;;9.70;99.90;;;;;;5025867;28;20470;-87
2023/03/26 08:40:52;;;;;;;2.80;1.20;;;9.80;99.90;;;;;;5034085;28;20438;-87
2023/03/26 08:43:42;;;;;;;4.17;1.33;;;9.90;99.90;;;;;;5039397;28;20383;-88
2023/03/26 08:46:25;;;;;;;2.42;1.30;;;9.90;99.90;;;;;;5033429;28;20406;-86
2023/03/26 08:49:09;;;;;;;2.30;1.20;;;10.00;99.90;;;;;;5034180;28;20379;-87
2023/03/26 08:51:46;;;;;;;2.28;1.60;;;10.10;99.90;;;;;;5035976;28;20391;-87
2023/03/26 08:54:40;;;;;;;2.55;1.27;;;10.20;99.90;;;;;;5032277;28;20476;-88
2023/03/26 08:57:27;;;;;;;3.40;1.42;;;10.30;99.90;;;;;;5043781;28;20413;-88
2023/03/26 09:00:12;;;;;;;3.60;1.70;;;10.50;99.90;;;;;;5032994;28;20470;-89
2023/03/26 09:03:15;;;;;;;3.93;1.50;;;10.60;99.90;;;;;;5035825;28;20387;-89
2023/03/26 09:05:57;;;;;;;4.00;1.52;;;10.80;99.90;;;;;;5036913;28;20481;-88
2023/03/26 09:08:45;;;;;;;2.85;1.60;;;10.90;99.90;;;;;;5043081;28;20389;-88
2023/03/26 09:11:22;;;;;;;2.80;1.40;;;11.10;99.90;;;;;;5022034;28;20550;-87
2023/03/26 09:14:15;;;;;;;1.40;1.20;;;11.10;99.90;;;;;;5017613;28;20752;-87
2023/03/26 09:17:19;;;;;;;4.40;1.50;;;11.20;99.90;;;;;;5012687;28;20389;-92
2023/03/26 09:19:56;;;;;;;2.90;1.30;;;11.50;49.80;;;;;;5013420;28;20381;-89
2023/03/26 09:22:54;;;;;;;3.65;1.60;;;11.50;70.80;;;;;;5013825;28;20397;-88
2023/03/26 09:25:51;;;;;;;3.43;1.40;;;11.50;64.20;;;;;;4983000;28;20458;-88
2023/03/26 09:28:36;;;;;;;2.50;1.33;;;11.70;1.00;;;;;;5024212;28;20384;-90
2023/03/26 09:31:20;;;;;;;4.28;1.90;;;11.70;1.00;;;;;;5033561;28;20383;-87
2023/03/26 09:33:54;;;;;;;3.95;1.40;;;11.80;1.00;;;;;;5014066;28;20404;-87
2023/03/26 09:36:43;;;;;;;2.33;1.10;;;12.00;1.00;;;;;;5019849;28;20397;-86
2023/03/26 09:39:08;;;;;;;3.25;1.48;;;12.20;1.00;;;;;;5020469;28;20404;-89
2023/03/26 09:42:16;;;;;;;3.40;1.17;;;12.50;1.00;;;;;;5012389;28;20380;-89
2023/03/26 09:45:12;;;;;;;2.10;1.10;;;12.60;1.00;;;;;;5030987;28;20402;-88
2023/03/26 09:48:09;;;;;;;3.70;1.37;;;12.70;1.00;;;;;;5032680;28;20426;-88
2023/03/26 09:50:51;;;;;;;1.90;1.20;;;12.90;1.00;;;;;;5032511;28;20483;-87
2023/03/26 09:53:36;;;;;;;2.03;0.93;;;12.90;99.90;;;;;;5040611;28;20409;-87
2023/03/26 09:56:23;;;;;;;1.92;0.90;;;13.00;1.00;;;;;;5038403;28;20387;-86
2023/03/26 09:59:21;;;;;;;1.50;0.90;;;12.90;1.00;;;;;;5036798;28;20722;-87
2023/03/26 10:02:00;;;;;;;2.53;1.08;;;13.00;99.90;;;;;;5036714;28;20394;-86
2023/03/26 10:04:59;;;;;;;3.10;0.98;;;13.20;61.30;;;;;;5052250;28;20414;-87
2023/03/26 10:07:29;;;;;;;2.55;0.80;;;13.20;1.00;;;;;;5037957;28;20437;-87
2023/03/26 10:10:11;;;;;;;1.30;0.77;;;13.30;1.00;;;;;;5037106;28;20470;-87
2023/03/26 10:12:44;;;;;;;2.30;1.00;;;13.30;1.00;;;;;;5011361;28;20759;-89
2023/03/26 10:15:52;;;;;;;3.00;1.27;;;13.10;1.00;;;;;;5015824;28;20442;-88
2023/03/26 10:18:35;;;;;;;4.07;0.93;;;13.10;1.00;;;;;;5019410;28;20389;-88
2023/03/26 10:21:06;;;;;;;2.20;0.85;;;12.80;1.00;;;;;;5024166;28;20401;-88
2023/03/26 10:23:50;;;;;;;2.53;0.85;;;12.80;1.00;;;;;;5020484;28;20432;-88
2023/03/26 10:26:44;;;;;;;1.40;0.90;;;13.00;1.00;;;;;;5020958;28;20385;-87
2023/03/26 10:29:31;;;;;;;1.00;0.70;;;12.90;1.00;;;;;;5018445;28;20392;-88
2023/03/26 10:32:16;;;;;;;2.20;0.80;;;13.20;1.00;;;;;;5017260;28;20538;-88
2023/03/26 10:35:14;;;;;;;1.70;1.00;;;13.50;1.00;;;;;;5017295;28;20408;-88
2023/03/26 10:38:09;;;;;;;3.30;1.30;;;13.70;1.00;;;;;;5014701;28;20385;-87
2023/03/26 10:41:13;;;;;;;3.78;1.50;;;13.70;1.00;;;;;;5017111;28;20417;-89
2023/03/26 10:43:56;;;;;;;2.20;1.30;;;13.70;1.00;;;;;;4984120;28;20802;-89
2023/03/26 10:46:35;;;;;;;2.60;0.90;;;13.40;1.00;;;;;;5018241;28;20395;-87
2023/03/26 10:49:12;;;;;;;1.67;0.87;;;13.10;1.00;;;;;;5016510;28;20475;-87
2023/03/26 10:52:05;;;;;;;1.70;1.20;;;13.00;1.00;;;;;;5019290;28;20412;-86
2023/03/26 10:54:45;;;;;;;3.30;1.13;;;12.90;1.00;;;;;;5036126;28;20408;-86
2023/03/26 10:57:32;;;;;;;2.85;0.90;;;12.90;1.00;;;;;;5036855;28;20388;-87
2023/03/26 11:00:16;;;;;;;2.38;1.20;;;12.90;1.00;;;;;;5036280;28;20399;-85
2023/03/26 11:02:54;;;;;;;2.40;1.10;;;13.10;1.00;;;;;;5035513;28;20412;-87
2023/03/26 11:05:30;;;;;;;1.40;0.80;;;13.10;1.00;;;;;;5033851;28;20431;-87
2023/03/26 11:08:07;;;;;;;2.38;1.13;;;13.10;1.00;;;;;;5019621;28;20388;-87
2023/03/26 11:10:52;;;;;;;2.10;0.80;;;13.30;1.00;;;;;;5011653;28;20413;-87
2023/03/26 11:13:32;;;;;;;2.42;0.90;;;13.40;1.00;;;;;;4998994;28;20425;-87
2023/03/26 11:16:23;;;;;;;3.40;1.10;;;13.50;1.00;;;;;;5007743;28;20425;-88
2023/03/26 11:18:58;;;;;;;2.40;1.10;;;14.20;99.90;;;;;;5011859;28;20434;-88
2023/03/26 11:21:53;;;;;;;1.80;0.95;;;14.80;99.90;;;;;;5012719;28;20834;-87
2023/03/26 11:24:37;;;;;;;1.83;1.10;;;15.50;99.90;;;;;;4963368;28;20427;-87
2023/03/26 11:27:20;;;;;;;1.17;0.90;;;15.50;99.90;;;;;;5011001;28;20387;-88
2023/03/26 11:30:11;;;;;;;1.67;0.85;;;15.90;99.90;;;;;;5001645;28;20394;-88
2023/03/26 11:32:48;;;;;;;2.70;0.80;;;15.40;99.90;;;;;;4999395;28;20410;-87
2023/03/26 11:35:35;;;;;;;1.10;0.70;;;14.80;99.90;;;;;;4998607;28;20912;-86
2023/03/26 11:38:17;;;;;;;2.00;0.90;;;14.50;99.90;;;;;;4996371;28;20966;-87
2023/03/26 11:40:49;;;;;;;1.40;0.75;;;14.20;99.90;;;;;;4995925;28;20379;-87
2023/03/26 11:43:17;;;;;;;1.58;0.77;;;13.60;99.90;;;;;;5001510;28;20397;-87
2023/03/26 11:45:50;;;;;;;2.00;0.57;;;13.10;99.90;;;;;;5014876;28;20483;-88
2023/03/26 11:48:34;;;;;;;0.90;0.60;;;12.80;99.90;;;;;;5027812;28;20470;-89
2023/03/26 11:51:06;;;;;;;1.45;0.60;;;12.30;99.90;;;;;;5034488;28;20391;-87
2023/03/26 11:53:38;;;;;;;0.60;0.50;;;12.10;99.90;;;;;;5039364;28;20399;-88
2023/03/26 11:56:28;;;;;;;1.25;0.45;;;12.00;99.90;;;;;;5034413;28;20404;-87
2023/03/26 11:58:59;;;;;;;1.15;0.47;;;11.90;99.90;;;;;;5013782;28;20444;-87
2023/03/26 12:01:40;;;;;;;1.15;0.50;;;11.60;99.90;;;;;;5025422;28;20396;-88
2023/03/26 12:04:14;;;;;;;1.70;0.60;;;11.30;1.00;;;;;;5028276;28;20420;-88
2023/03/26 12:07:08;;;;;;;1.65;0.50;;;11.40;1.00;;;;;;5020730;28;20468;-87
2023/03/26 12:09:34;;;;;;;2.17;0.60;;;11.00;99.90;;;;;;5019272;28;20431;-86
2023/03/26 12:12:06;;;;;;;1.00;0.43;;;10.80;99.90;;;;;;5019755;28;20389;-86
2023/03/26 12:14:34;;;;;;;1.10;0.50;;;10.70;99.90;;;;;;5024230;28;20412;-87
2023/03/26 12:17:07;;;;;;;1.70;0.70;;;10.60;99.90;;;;;;5024939;28;20388;-87
2023/03/26 12:19:44;;;;;;;0.80;0.68;;;10.80;1.00;;;;;;5025864;28;20377;-86
2023/03/26 12:22:35;;;;;;;1.50;0.60;;;11.00;97.20;;;;;;5018727;28;20906;-86
2023/03/26 12:25:20;;;;;;;0.90;0.50;;;11.10;1.00;;;;;;5017040;28;20400;-87
2023/03/26 12:28:02;;;;;;;1.40;0.50;;;11.40;1.00;;;;;;5015748;28;20393;-86
2023/03/26 12:30:36;;;;;;;2.38;0.60;;;11.30;99.90;;;;;;5017918;28;20385;-86
2023/03/26 12:33:04;;;;;;;3.17;0.90;;;11.50;99.90;;;;;;5016877;28;20439;-86
2023/03/26 12:35:32;;;;;;;1.27;0.80;;;11.60;1.00;;;;;;5017389;28;20426;-86
2023/03/26 12:38:22;;;;;;;2.28;0.95;;;11.40;1.00;;;;;;5017504;28;20949;-86
2023/03/26 12:41:04;;;;;;;1.40;0.70;;;11.40;18.10;;;;;;5023039;28;20397;-86
2023/03/26 12:43:38;;;;;;;1.80;0.70;;;11.30;96.90;;;;;;4997122;28;20390;-86
2023/03/26 12:46:26;;;;;;;1.90;0.75;;;11.30;97.70;;;;;;4998910;28;20382;-86
2023/03/26 12:48:58;;;;;;;3.40;0.80;;;11.30;99.90;;;;;;4998166;28;20394;-86
2023/03/26 12:51:32;;;;;;;2.45;1.00;;;11.40;99.90;;;;;;4997169;28;20390;-87
2023/03/26 12:54:15;;;;;;;1.30;0.80;;;11.50;99.90;;;;;;4997142;28;20437;-87
2023/03/26 12:57:01;;;;;;;2.30;1.30;;;11.60;99.90;;;;;;4995142;28;20382;-87
2023/03/26 12:59:45;;;;;;;1.50;0.90;;;11.60;99.90;;;;;;4993100;28;20386;-87
2023/03/26 13:02:14;;;;;;;4.63;1.30;;;11.70;99.90;;;;;;4994059;28;20386;-86
2023/03/26 13:04:51;;;;;;;2.20;1.27;;;11.70;99.90;;;;;;4994345;28;20398;-87
2023/03/26 13:07:33;;;;;;;2.97;1.50;;;11.90;99.90;;;;;;4993295;28;20482;-87
2023/03/26 13:10:14;;;;;;;2.90;1.10;;;11.90;99.90;;;;;;4995212;28;20398;-87
2023/03/26 13:12:50;;;;;;;2.00;1.40;;;11.90;99.90;;;;;;5012495;28;20389;-87
2023/03/26 13:15:16;;;;;;;4.30;1.00;;;11.90;99.90;;;;;;5011893;28;20997;-86
2023/03/26 13:18:20;;;;;;;1.85;1.10;;;12.00;99.90;;;;;;5012045;28;20389;-88
2023/03/26 13:21:27;;;;;;;4.45;1.38;;;12.10;99.90;;;;;;5011878;28;20982;-87
2023/03/26 13:24:03;;;;;;;1.90;0.80;;;12.40;99.90;;;;;;4984565;28;20392;-87
2023/03/26 13:26:55;;;;;;;2.22;1.10;;;12.90;99.90;;;;;;5011514;28;20416;-87
2023/03/26 13:29:34;;;;;;;2.65;0.63;;;12.90;99.90;;;;;;5008849;28;20389;-87
2023/03/26 13:32:57;;;;;;;3.80;1.00;;;12.90;91.80;;;;;;5012603;28;21017;-86